sensor_id;sensor_type;location;lat;lon;timestamp;temperature;humidity
38265;DHT22;24062;47.480;8.768;2022-07-06T00:00:27;17.70;58.50
38265;DHT22;24062;47.480;8.768;2022-07-06T00:02:54;17.70;58.50
38265;DHT22;24062;47.480;8.768;2022-07-06T00:05:22;17.70;58.40
38265;DHT22;24062;47.480;8.768;2022-07-06T00:07:49;17.60;58.40
38265;DHT22;24062;47.480;8.768;2022-07-06T00:10:17;17.50;58.70
38265;DHT22;24062;47.480;8.768;2022-07-06T00:12:44;17.50;59.00
38265;DHT22;24062;47.480;8.768;2022-07-06T00:15:12;17.50;58.70
38265;DHT22;24062;47.480;8.768;2022-07-06T00:17:39;17.40;58.70
38265;DHT22;24062;47.480;8.768;2022-07-06T00:20:07;17.40;59.00
38265;DHT22;24062;47.480;8.768;2022-07-06T00:22:34;17.30;59.00
38265;DHT22;24062;47.480;8.768;2022-07-06T00:25:01;17.30;58.90
38265;DHT22;24062;47.480;8.768;2022-07-06T00:27:30;17.20;59.30
38265;DHT22;24062;47.480;8.768;2022-07-06T00:29:57;17.20;59.30
38265;DHT22;24062;47.480;8.768;2022-07-06T00:32:24;17.20;59.30
38265;DHT22;24062;47.480;8.768;2022-07-06T00:34:53;17.20;60.00
38265;DHT22;24062;47.480;8.768;2022-07-06T00:37:20;17.20;60.20
38265;DHT22;24062;47.480;8.768;2022-07-06T00:39:47;17.20;60.30
38265;DHT22;24062;47.480;8.768;2022-07-06T00:42:14;17.20;60.40
38265;DHT22;24062;47.480;8.768;2022-07-06T00:44:43;17.10;60.50
38265;DHT22;24062;47.480;8.768;2022-07-06T00:47:10;17.10;60.60
38265;DHT22;24062;47.480;8.768;2022-07-06T00:49:37;17.10;60.50
38265;DHT22;24062;47.480;8.768;2022-07-06T00:52:22;17.10;60.60
38265;DHT22;24062;47.480;8.768;2022-07-06T00:54:50;17.00;60.30
38265;DHT22;24062;47.480;8.768;2022-07-06T00:57:18;17.00;60.30
38265;DHT22;24062;47.480;8.768;2022-07-06T00:59:47;16.90;60.40
38265;DHT22;24062;47.480;8.768;2022-07-06T01:02:14;16.80;60.60
38265;DHT22;24062;47.480;8.768;2022-07-06T01:04:42;16.80;60.70
38265;DHT22;24062;47.480;8.768;2022-07-06T01:07:09;16.80;60.70
38265;DHT22;24062;47.480;8.768;2022-07-06T01:09:36;16.70;60.60
38265;DHT22;24062;47.480;8.768;2022-07-06T01:12:04;16.60;60.60
38265;DHT22;24062;47.480;8.768;2022-07-06T01:14:32;16.50;61.30
38265;DHT22;24062;47.480;8.768;2022-07-06T01:17:01;16.50;61.10
38265;DHT22;24062;47.480;8.768;2022-07-06T01:19:28;16.40;60.90
38265;DHT22;24062;47.480;8.768;2022-07-06T01:21:56;16.40;60.90
38265;DHT22;24062;47.480;8.768;2022-07-06T01:24:23;16.30;61.90
38265;DHT22;24062;47.480;8.768;2022-07-06T01:26:50;16.30;61.70
38265;DHT22;24062;47.480;8.768;2022-07-06T01:29:17;16.20;61.60
38265;DHT22;24062;47.480;8.768;2022-07-06T01:31:46;16.10;61.70
38265;DHT22;24062;47.480;8.768;2022-07-06T01:34:14;16.00;62.00
38265;DHT22;24062;47.480;8.768;2022-07-06T01:36:42;16.00;62.10
38265;DHT22;24062;47.480;8.768;2022-07-06T01:39:10;15.90;62.20
38265;DHT22;24062;47.480;8.768;2022-07-06T01:41:37;15.90;63.30
38265;DHT22;24062;47.480;8.768;2022-07-06T01:44:05;15.80;62.30
38265;DHT22;24062;47.480;8.768;2022-07-06T01:46:32;15.80;63.10
38265;DHT22;24062;47.480;8.768;2022-07-06T01:48:59;15.70;62.20
38265;DHT22;24062;47.480;8.768;2022-07-06T01:51:26;15.60;62.40
38265;DHT22;24062;47.480;8.768;2022-07-06T01:53:53;15.60;62.70
38265;DHT22;24062;47.480;8.768;2022-07-06T01:56:22;15.60;62.60
38265;DHT22;24062;47.480;8.768;2022-07-06T01:58:49;15.50;62.60
38265;DHT22;24062;47.480;8.768;2022-07-06T02:01:17;15.50;63.00
38265;DHT22;24062;47.480;8.768;2022-07-06T02:03:45;15.40;62.80
38265;DHT22;24062;47.480;8.768;2022-07-06T02:06:12;15.40;62.70
38265;DHT22;24062;47.480;8.768;2022-07-06T02:08:41;15.30;62.70
38265;DHT22;24062;47.480;8.768;2022-07-06T02:11:09;15.30;63.20
38265;DHT22;24062;47.480;8.768;2022-07-06T02:13:38;15.30;63.20
38265;DHT22;24062;47.480;8.768;2022-07-06T02:16:05;15.20;63.00
38265;DHT22;24062;47.480;8.768;2022-07-06T02:18:32;15.20;63.20
38265;DHT22;24062;47.480;8.768;2022-07-06T02:20:59;15.10;63.30
38265;DHT22;24062;47.480;8.768;2022-07-06T02:23:26;15.00;63.90
38265;DHT22;24062;47.480;8.768;2022-07-06T02:25:53;15.00;64.20
38265;DHT22;24062;47.480;8.768;2022-07-06T02:28:20;15.00;64.70
38265;DHT22;24062;47.480;8.768;2022-07-06T02:30:48;15.00;63.70
38265;DHT22;24062;47.480;8.768;2022-07-06T02:33:15;15.00;64.60
38265;DHT22;24062;47.480;8.768;2022-07-06T02:35:42;14.90;64.20
38265;DHT22;24062;47.480;8.768;2022-07-06T02:38:09;14.90;64.80
38265;DHT22;24062;47.480;8.768;2022-07-06T02:40:36;14.90;64.00
38265;DHT22;24062;47.480;8.768;2022-07-06T02:43:03;14.80;64.60
38265;DHT22;24062;47.480;8.768;2022-07-06T02:45:31;14.80;64.60
38265;DHT22;24062;47.480;8.768;2022-07-06T02:47:59;14.80;64.90
38265;DHT22;24062;47.480;8.768;2022-07-06T02:50:26;14.80;65.60
38265;DHT22;24062;47.480;8.768;2022-07-06T02:52:53;14.70;65.30
38265;DHT22;24062;47.480;8.768;2022-07-06T02:55:21;14.70;65.10
38265;DHT22;24062;47.480;8.768;2022-07-06T02:57:48;14.70;65.30
38265;DHT22;24062;47.480;8.768;2022-07-06T03:00:15;14.60;65.70
38265;DHT22;24062;47.480;8.768;2022-07-06T03:02:42;14.60;65.80
38265;DHT22;24062;47.480;8.768;2022-07-06T03:05:10;14.60;65.30
38265;DHT22;24062;47.480;8.768;2022-07-06T03:07:37;14.60;65.50
38265;DHT22;24062;47.480;8.768;2022-07-06T03:10:05;14.50;65.60
38265;DHT22;24062;47.480;8.768;2022-07-06T03:12:32;14.50;66.10
38265;DHT22;24062;47.480;8.768;2022-07-06T03:14:59;14.50;66.00
38265;DHT22;24062;47.480;8.768;2022-07-06T03:17:25;14.50;66.30
38265;DHT22;24062;47.480;8.768;2022-07-06T03:19:52;14.40;66.00
38265;DHT22;24062;47.480;8.768;2022-07-06T03:22:21;14.30;65.90
38265;DHT22;24062;47.480;8.768;2022-07-06T03:24:47;14.40;65.90
38265;DHT22;24062;47.480;8.768;2022-07-06T03:27:15;14.30;65.90
38265;DHT22;24062;47.480;8.768;2022-07-06T03:29:42;14.30;67.20
38265;DHT22;24062;47.480;8.768;2022-07-06T03:32:08;14.30;66.30
38265;DHT22;24062;47.480;8.768;2022-07-06T03:34:35;14.30;67.10
38265;DHT22;24062;47.480;8.768;2022-07-06T03:37:03;14.30;66.70
38265;DHT22;24062;47.480;8.768;2022-07-06T03:39:31;14.30;66.30
38265;DHT22;24062;47.480;8.768;2022-07-06T03:41:58;14.30;67.00
38265;DHT22;24062;47.480;8.768;2022-07-06T03:44:25;14.20;66.90
38265;DHT22;24062;47.480;8.768;2022-07-06T03:46:52;14.20;66.80
38265;DHT22;24062;47.480;8.768;2022-07-06T03:49:20;14.20;66.90
38265;DHT22;24062;47.480;8.768;2022-07-06T03:51:47;14.20;67.50
38265;DHT22;24062;47.480;8.768;2022-07-06T03:54:14;14.20;68.90
38265;DHT22;24062;47.480;8.768;2022-07-06T03:56:42;14.20;67.70
38265;DHT22;24062;47.480;8.768;2022-07-06T03:59:09;14.30;67.80
38265;DHT22;24062;47.480;8.768;2022-07-06T04:01:36;14.20;67.80
38265;DHT22;24062;47.480;8.768;2022-07-06T04:04:03;14.30;68.10
38265;DHT22;24062;47.480;8.768;2022-07-06T04:06:30;14.30;68.10
38265;DHT22;24062;47.480;8.768;2022-07-06T04:09:00;14.30;68.00
38265;DHT22;24062;47.480;8.768;2022-07-06T04:11:26;14.30;68.60
38265;DHT22;24062;47.480;8.768;2022-07-06T04:13:55;14.30;68.40
38265;DHT22;24062;47.480;8.768;2022-07-06T04:16:22;14.30;68.30
38265;DHT22;24062;47.480;8.768;2022-07-06T04:18:48;14.30;68.80
38265;DHT22;24062;47.480;8.768;2022-07-06T04:21:15;14.30;68.40
38265;DHT22;24062;47.480;8.768;2022-07-06T04:23:42;14.40;68.70
38265;DHT22;24062;47.480;8.768;2022-07-06T04:26:09;14.40;68.40
38265;DHT22;24062;47.480;8.768;2022-07-06T04:28:37;14.40;68.70
38265;DHT22;24062;47.480;8.768;2022-07-06T04:31:05;14.50;69.10
38265;DHT22;24062;47.480;8.768;2022-07-06T04:33:32;14.60;68.90
38265;DHT22;24062;47.480;8.768;2022-07-06T04:35:59;14.80;69.20
38265;DHT22;24062;47.480;8.768;2022-07-06T04:38:26;14.90;69.50
38265;DHT22;24062;47.480;8.768;2022-07-06T04:40:52;14.90;69.10
38265;DHT22;24062;47.480;8.768;2022-07-06T04:43:19;15.10;69.40
38265;DHT22;24062;47.480;8.768;2022-07-06T04:45:46;15.10;69.20
38265;DHT22;24062;47.480;8.768;2022-07-06T04:48:14;15.20;69.20
38265;DHT22;24062;47.480;8.768;2022-07-06T04:50:41;15.30;69.90
38265;DHT22;24062;47.480;8.768;2022-07-06T04:53:08;15.40;69.70
38265;DHT22;24062;47.480;8.768;2022-07-06T04:55:35;15.50;69.60
38265;DHT22;24062;47.480;8.768;2022-07-06T04:58:02;15.60;69.60
38265;DHT22;24062;47.480;8.768;2022-07-06T05:00:29;15.70;69.50
38265;DHT22;24062;47.480;8.768;2022-07-06T05:02:56;15.80;69.40
38265;DHT22;24062;47.480;8.768;2022-07-06T05:05:25;15.90;69.60
38265;DHT22;24062;47.480;8.768;2022-07-06T05:07:52;16.00;69.70
38265;DHT22;24062;47.480;8.768;2022-07-06T05:10:18;16.10;69.60
38265;DHT22;24062;47.480;8.768;2022-07-06T05:12:45;16.20;69.70
38265;DHT22;24062;47.480;8.768;2022-07-06T05:15:12;16.30;69.70
38265;DHT22;24062;47.480;8.768;2022-07-06T05:17:39;16.40;69.70
38265;DHT22;24062;47.480;8.768;2022-07-06T05:20:07;16.50;69.70
38265;DHT22;24062;47.480;8.768;2022-07-06T05:22:35;16.70;69.90
38265;DHT22;24062;47.480;8.768;2022-07-06T05:25:02;16.80;69.80
38265;DHT22;24062;47.480;8.768;2022-07-06T05:27:29;16.90;69.80
38265;DHT22;24062;47.480;8.768;2022-07-06T05:29:56;17.00;69.80
38265;DHT22;24062;47.480;8.768;2022-07-06T05:32:23;17.10;69.80
38265;DHT22;24062;47.480;8.768;2022-07-06T05:34:50;17.20;69.80
38265;DHT22;24062;47.480;8.768;2022-07-06T05:37:17;17.30;69.70
38265;DHT22;24062;47.480;8.768;2022-07-06T05:39:45;17.50;69.80
38265;DHT22;24062;47.480;8.768;2022-07-06T05:42:14;17.60;69.90
38265;DHT22;24062;47.480;8.768;2022-07-06T05:44:41;17.80;70.00
38265;DHT22;24062;47.480;8.768;2022-07-06T05:47:08;17.90;69.90
38265;DHT22;24062;47.480;8.768;2022-07-06T05:49:52;18.00;70.00
38265;DHT22;24062;47.480;8.768;2022-07-06T05:52:37;18.20;70.00
38265;DHT22;24062;47.480;8.768;2022-07-06T05:55:06;18.30;69.90
38265;DHT22;24062;47.480;8.768;2022-07-06T05:57:33;18.50;69.90
38265;DHT22;24062;47.480;8.768;2022-07-06T06:00:00;18.60;69.80
38265;DHT22;24062;47.480;8.768;2022-07-06T06:02:31;18.80;70.60
38265;DHT22;24062;47.480;8.768;2022-07-06T06:05:02;18.90;69.70
38265;DHT22;24062;47.480;8.768;2022-07-06T06:07:29;19.10;69.60
38265;DHT22;24062;47.480;8.768;2022-07-06T06:09:56;19.20;69.10
38265;DHT22;24062;47.480;8.768;2022-07-06T06:12:24;19.30;68.70
38265;DHT22;24062;47.480;8.768;2022-07-06T06:14:51;19.50;69.10
38265;DHT22;24062;47.480;8.768;2022-07-06T06:17:18;19.60;67.90
38265;DHT22;24062;47.480;8.768;2022-07-06T06:19:45;19.70;67.90
38265;DHT22;24062;47.480;8.768;2022-07-06T06:22:12;19.80;66.70
38265;DHT22;24062;47.480;8.768;2022-07-06T06:24:38;20.00;66.80
38265;DHT22;24062;47.480;8.768;2022-07-06T06:27:06;20.10;66.90
38265;DHT22;24062;47.480;8.768;2022-07-06T06:29:34;20.30;66.80
38265;DHT22;24062;47.480;8.768;2022-07-06T06:32:01;20.40;66.70
38265;DHT22;24062;47.480;8.768;2022-07-06T06:34:28;20.50;66.30
38265;DHT22;24062;47.480;8.768;2022-07-06T06:36:55;20.60;64.20
38265;DHT22;24062;47.480;8.768;2022-07-06T06:39:22;20.70;64.50
38265;DHT22;24062;47.480;8.768;2022-07-06T06:41:49;20.90;63.50
38265;DHT22;24062;47.480;8.768;2022-07-06T06:44:16;21.00;63.40
38265;DHT22;24062;47.480;8.768;2022-07-06T06:46:44;21.10;63.40
38265;DHT22;24062;47.480;8.768;2022-07-06T06:49:11;21.20;62.90
38265;DHT22;24062;47.480;8.768;2022-07-06T06:51:39;21.30;61.60
38265;DHT22;24062;47.480;8.768;2022-07-06T06:54:06;21.40;61.70
38265;DHT22;24062;47.480;8.768;2022-07-06T06:56:32;21.60;61.70
38265;DHT22;24062;47.480;8.768;2022-07-06T06:58:59;21.70;60.00
38265;DHT22;24062;47.480;8.768;2022-07-06T07:01:28;21.70;61.00
38265;DHT22;24062;47.480;8.768;2022-07-06T07:03:56;21.80;60.30
38265;DHT22;24062;47.480;8.768;2022-07-06T07:06:23;22.00;59.50
38265;DHT22;24062;47.480;8.768;2022-07-06T07:08:50;22.10;59.60
38265;DHT22;24062;47.480;8.768;2022-07-06T07:11:17;22.20;59.00
38265;DHT22;24062;47.480;8.768;2022-07-06T07:13:44;22.40;59.30
38265;DHT22;24062;47.480;8.768;2022-07-06T07:16:10;22.50;59.00
38265;DHT22;24062;47.480;8.768;2022-07-06T07:18:37;22.60;58.30
38265;DHT22;24062;47.480;8.768;2022-07-06T07:21:06;22.70;58.60
38265;DHT22;24062;47.480;8.768;2022-07-06T07:23:33;22.70;58.70
38265;DHT22;24062;47.480;8.768;2022-07-06T07:25:59;22.90;58.40
38265;DHT22;24062;47.480;8.768;2022-07-06T07:28:26;22.90;58.20
38265;DHT22;24062;47.480;8.768;2022-07-06T07:30:53;23.10;59.10
38265;DHT22;24062;47.480;8.768;2022-07-06T07:33:20;23.10;57.80
38265;DHT22;24062;47.480;8.768;2022-07-06T07:35:47;23.00;57.30
38265;DHT22;24062;47.480;8.768;2022-07-06T07:38:15;23.00;56.80
38265;DHT22;24062;47.480;8.768;2022-07-06T07:40:42;22.90;57.40
38265;DHT22;24062;47.480;8.768;2022-07-06T07:43:09;23.00;57.60
38265;DHT22;24062;47.480;8.768;2022-07-06T07:45:37;23.20;57.90
38265;DHT22;24062;47.480;8.768;2022-07-06T07:48:04;23.40;57.00
38265;DHT22;24062;47.480;8.768;2022-07-06T07:50:31;23.60;57.60
38265;DHT22;24062;47.480;8.768;2022-07-06T07:53:00;23.60;56.30
38265;DHT22;24062;47.480;8.768;2022-07-06T07:55:29;23.80;56.90
38265;DHT22;24062;47.480;8.768;2022-07-06T07:57:56;24.00;57.10
38265;DHT22;24062;47.480;8.768;2022-07-06T08:00:23;24.30;56.70
38265;DHT22;24062;47.480;8.768;2022-07-06T08:02:51;24.40;55.50
38265;DHT22;24062;47.480;8.768;2022-07-06T08:05:17;24.50;55.90
38265;DHT22;24062;47.480;8.768;2022-07-06T08:07:44;24.40;55.20
38265;DHT22;24062;47.480;8.768;2022-07-06T08:10:11;24.40;55.80
38265;DHT22;24062;47.480;8.768;2022-07-06T08:12:40;24.50;55.70
38265;DHT22;24062;47.480;8.768;2022-07-06T08:15:08;24.40;55.60
38265;DHT22;24062;47.480;8.768;2022-07-06T08:17:35;24.40;55.70
38265;DHT22;24062;47.480;8.768;2022-07-06T08:20:02;24.60;56.00
38265;DHT22;24062;47.480;8.768;2022-07-06T08:22:29;24.90;55.90
38265;DHT22;24062;47.480;8.768;2022-07-06T08:24:56;25.00;55.90
38265;DHT22;24062;47.480;8.768;2022-07-06T08:27:23;25.20;55.50
38265;DHT22;24062;47.480;8.768;2022-07-06T08:29:52;25.10;54.90
38265;DHT22;24062;47.480;8.768;2022-07-06T08:32:18;25.20;55.40
38265;DHT22;24062;47.480;8.768;2022-07-06T08:34:46;25.20;54.30
38265;DHT22;24062;47.480;8.768;2022-07-06T08:37:13;25.40;55.10
38265;DHT22;24062;47.480;8.768;2022-07-06T08:39:40;25.50;54.10
38265;DHT22;24062;47.480;8.768;2022-07-06T08:42:07;25.60;53.90
38265;DHT22;24062;47.480;8.768;2022-07-06T08:44:37;25.70;54.10
38265;DHT22;24062;47.480;8.768;2022-07-06T08:47:06;25.90;54.00
38265;DHT22;24062;47.480;8.768;2022-07-06T08:49:34;26.20;54.50
38265;DHT22;24062;47.480;8.768;2022-07-06T08:52:03;26.40;53.80
38265;DHT22;24062;47.480;8.768;2022-07-06T08:54:31;26.50;52.50
38265;DHT22;24062;47.480;8.768;2022-07-06T08:56:58;26.30;52.10
38265;DHT22;24062;47.480;8.768;2022-07-06T08:59:25;26.20;51.80
38265;DHT22;24062;47.480;8.768;2022-07-06T09:01:54;26.30;52.40
38265;DHT22;24062;47.480;8.768;2022-07-06T09:04:22;26.30;52.10
38265;DHT22;24062;47.480;8.768;2022-07-06T09:06:51;26.50;52.40
38265;DHT22;24062;47.480;8.768;2022-07-06T09:09:20;26.60;52.10
38265;DHT22;24062;47.480;8.768;2022-07-06T09:11:48;26.60;51.90
38265;DHT22;24062;47.480;8.768;2022-07-06T09:14:15;26.70;52.00
38265;DHT22;24062;47.480;8.768;2022-07-06T09:16:42;26.70;51.90
38265;DHT22;24062;47.480;8.768;2022-07-06T09:19:11;26.80;51.80
38265;DHT22;24062;47.480;8.768;2022-07-06T09:21:40;26.70;50.50
38265;DHT22;24062;47.480;8.768;2022-07-06T09:24:08;26.80;51.10
38265;DHT22;24062;47.480;8.768;2022-07-06T09:26:36;27.10;50.90
38265;DHT22;24062;47.480;8.768;2022-07-06T09:29:04;27.20;50.10
38265;DHT22;24062;47.480;8.768;2022-07-06T09:31:31;27.00;49.20
38265;DHT22;24062;47.480;8.768;2022-07-06T09:34:00;27.10;49.70
38265;DHT22;24062;47.480;8.768;2022-07-06T09:36:42;27.30;49.30
38265;DHT22;24062;47.480;8.768;2022-07-06T09:39:26;27.50;49.00
38265;DHT22;24062;47.480;8.768;2022-07-06T09:41:55;27.70;49.00
38265;DHT22;24062;47.480;8.768;2022-07-06T09:44:23;27.80;49.20
38265;DHT22;24062;47.480;8.768;2022-07-06T09:46:51;27.90;49.10
38265;DHT22;24062;47.480;8.768;2022-07-06T09:49:18;27.90;48.60
38265;DHT22;24062;47.480;8.768;2022-07-06T09:51:47;27.70;47.10
38265;DHT22;24062;47.480;8.768;2022-07-06T09:54:15;27.40;47.20
38265;DHT22;24062;47.480;8.768;2022-07-06T09:56:44;27.20;47.50
38265;DHT22;24062;47.480;8.768;2022-07-06T09:59:15;27.20;47.60
38265;DHT22;24062;47.480;8.768;2022-07-06T10:01:42;27.20;47.40
38265;DHT22;24062;47.480;8.768;2022-07-06T10:04:11;27.40;47.80
38265;DHT22;24062;47.480;8.768;2022-07-06T10:06:38;27.40;46.90
38265;DHT22;24062;47.480;8.768;2022-07-06T10:09:08;27.40;45.90
38265;DHT22;24062;47.480;8.768;2022-07-06T10:11:37;27.30;45.30
38265;DHT22;24062;47.480;8.768;2022-07-06T10:14:06;27.30;46.20
38265;DHT22;24062;47.480;8.768;2022-07-06T10:16:35;27.40;46.00
38265;DHT22;24062;47.480;8.768;2022-07-06T10:19:05;27.40;45.90
38265;DHT22;24062;47.480;8.768;2022-07-06T10:21:33;27.40;44.90
38265;DHT22;24062;47.480;8.768;2022-07-06T10:24:03;27.40;44.60
38265;DHT22;24062;47.480;8.768;2022-07-06T10:26:32;27.40;45.40
38265;DHT22;24062;47.480;8.768;2022-07-06T10:29:00;27.50;44.90
38265;DHT22;24062;47.480;8.768;2022-07-06T10:31:28;27.60;44.80
38265;DHT22;24062;47.480;8.768;2022-07-06T10:33:56;27.60;45.10
38265;DHT22;24062;47.480;8.768;2022-07-06T10:36:24;27.70;45.70
38265;DHT22;24062;47.480;8.768;2022-07-06T10:38:52;27.80;45.60
38265;DHT22;24062;47.480;8.768;2022-07-06T10:41:32;28.10;45.70
38265;DHT22;24062;47.480;8.768;2022-07-06T10:44:14;28.00;45.20
38265;DHT22;24062;47.480;8.768;2022-07-06T10:46:49;28.20;44.90
38265;DHT22;24062;47.480;8.768;2022-07-06T10:49:16;28.30;45.00
38265;DHT22;24062;47.480;8.768;2022-07-06T10:51:43;28.40;45.10
38265;DHT22;24062;47.480;8.768;2022-07-06T10:54:11;28.50;45.00
38265;DHT22;24062;47.480;8.768;2022-07-06T10:56:40;28.50;44.80
38265;DHT22;24062;47.480;8.768;2022-07-06T10:59:09;28.40;44.50
38265;DHT22;24062;47.480;8.768;2022-07-06T11:01:37;28.50;44.90
38265;DHT22;24062;47.480;8.768;2022-07-06T11:04:08;28.60;45.00
38265;DHT22;24062;47.480;8.768;2022-07-06T11:06:37;28.70;44.80
38265;DHT22;24062;47.480;8.768;2022-07-06T11:09:05;28.70;44.70
38265;DHT22;24062;47.480;8.768;2022-07-06T11:11:42;28.80;44.10
38265;DHT22;24062;47.480;8.768;2022-07-06T11:14:12;28.80;43.80
38265;DHT22;24062;47.480;8.768;2022-07-06T11:19:26;28.80;43.30
38265;DHT22;24062;47.480;8.768;2022-07-06T11:21:55;28.80;43.70
38265;DHT22;24062;47.480;8.768;2022-07-06T11:24:24;29.00;44.00
38265;DHT22;24062;47.480;8.768;2022-07-06T11:26:54;29.20;44.00
38265;DHT22;24062;47.480;8.768;2022-07-06T11:29:22;29.40;43.90
38265;DHT22;24062;47.480;8.768;2022-07-06T11:31:51;29.40;43.50
38265;DHT22;24062;47.480;8.768;2022-07-06T11:34:20;29.40;43.60
38265;DHT22;24062;47.480;8.768;2022-07-06T11:36:47;29.50;43.40
38265;DHT22;24062;47.480;8.768;2022-07-06T11:39:15;29.60;43.70
38265;DHT22;24062;47.480;8.768;2022-07-06T11:41:42;29.90;44.10
38265;DHT22;24062;47.480;8.768;2022-07-06T11:44:11;30.00;42.80
38265;DHT22;24062;47.480;8.768;2022-07-06T11:46:38;30.00;42.50
38265;DHT22;24062;47.480;8.768;2022-07-06T11:49:05;30.00;42.50
38265;DHT22;24062;47.480;8.768;2022-07-06T11:51:34;30.00;42.00
38265;DHT22;24062;47.480;8.768;2022-07-06T11:54:07;30.10;42.10
38265;DHT22;24062;47.480;8.768;2022-07-06T11:56:35;30.20;42.70
38265;DHT22;24062;47.480;8.768;2022-07-06T11:59:02;30.50;43.10
38265;DHT22;24062;47.480;8.768;2022-07-06T12:01:31;30.80;42.30
38265;DHT22;24062;47.480;8.768;2022-07-06T12:03:58;31.00;42.50
38265;DHT22;24062;47.480;8.768;2022-07-06T12:06:26;31.20;42.40
38265;DHT22;24062;47.480;8.768;2022-07-06T12:08:55;31.30;41.90
38265;DHT22;24062;47.480;8.768;2022-07-06T12:11:25;31.20;40.90
38265;DHT22;24062;47.480;8.768;2022-07-06T12:13:54;31.10;41.40
38265;DHT22;24062;47.480;8.768;2022-07-06T12:16:21;31.00;41.00
38265;DHT22;24062;47.480;8.768;2022-07-06T12:18:50;31.10;41.10
38265;DHT22;24062;47.480;8.768;2022-07-06T12:21:18;31.00;40.90
38265;DHT22;24062;47.480;8.768;2022-07-06T12:23:48;31.40;41.80
38265;DHT22;24062;47.480;8.768;2022-07-06T12:26:16;31.90;41.20
38265;DHT22;24062;47.480;8.768;2022-07-06T12:28:44;32.10;40.40
38265;DHT22;24062;47.480;8.768;2022-07-06T12:31:30;32.30;39.60
38265;DHT22;24062;47.480;8.768;2022-07-06T12:33:59;32.20;39.50
38265;DHT22;24062;47.480;8.768;2022-07-06T12:36:26;32.40;39.70
38265;DHT22;24062;47.480;8.768;2022-07-06T12:38:53;32.40;39.10
38265;DHT22;24062;47.480;8.768;2022-07-06T12:41:25;32.30;38.10
38265;DHT22;24062;47.480;8.768;2022-07-06T12:44:01;32.30;38.00
38265;DHT22;24062;47.480;8.768;2022-07-06T12:46:29;32.60;39.30
38265;DHT22;24062;47.480;8.768;2022-07-06T12:48:57;32.90;38.30
38265;DHT22;24062;47.480;8.768;2022-07-06T12:51:26;33.30;39.50
38265;DHT22;24062;47.480;8.768;2022-07-06T12:56:35;34.20;38.50
38265;DHT22;24062;47.480;8.768;2022-07-06T12:59:01;34.30;38.50
38265;DHT22;24062;47.480;8.768;2022-07-06T13:01:28;34.40;38.80
38265;DHT22;24062;47.480;8.768;2022-07-06T13:03:56;34.60;37.60
38265;DHT22;24062;47.480;8.768;2022-07-06T13:06:29;34.50;36.40
38265;DHT22;24062;47.480;8.768;2022-07-06T13:08:56;34.50;36.70
38265;DHT22;24062;47.480;8.768;2022-07-06T13:11:23;34.70;36.60
38265;DHT22;24062;47.480;8.768;2022-07-06T13:13:50;35.00;37.50
38265;DHT22;24062;47.480;8.768;2022-07-06T13:16:17;35.60;37.60
38265;DHT22;24062;47.480;8.768;2022-07-06T13:18:44;36.00;38.50
38265;DHT22;24062;47.480;8.768;2022-07-06T13:21:10;36.50;37.90
38265;DHT22;24062;47.480;8.768;2022-07-06T13:23:39;36.00;35.30
38265;DHT22;24062;47.480;8.768;2022-07-06T13:26:06;35.70;36.40
38265;DHT22;24062;47.480;8.768;2022-07-06T13:28:33;36.40;37.90
38265;DHT22;24062;47.480;8.768;2022-07-06T13:31:00;39.30;36.90
38265;DHT22;24062;47.480;8.768;2022-07-06T13:33:27;41.60;35.00
38265;DHT22;24062;47.480;8.768;2022-07-06T13:35:54;40.70;33.00
38265;DHT22;24062;47.480;8.768;2022-07-06T13:38:21;41.50;35.00
38265;DHT22;24062;47.480;8.768;2022-07-06T13:40:49;42.20;32.10
38265;DHT22;24062;47.480;8.768;2022-07-06T13:43:16;42.40;32.50
38265;DHT22;24062;47.480;8.768;2022-07-06T13:45:42;42.10;32.50
38265;DHT22;24062;47.480;8.768;2022-07-06T13:48:09;45.40;34.30
38265;DHT22;24062;47.480;8.768;2022-07-06T13:50:37;48.30;31.90
38265;DHT22;24062;47.480;8.768;2022-07-06T13:53:04;48.10;29.60
38265;DHT22;24062;47.480;8.768;2022-07-06T13:55:31;48.20;29.80
38265;DHT22;24062;47.480;8.768;2022-07-06T13:58:00;49.00;29.90
38265;DHT22;24062;47.480;8.768;2022-07-06T14:00:26;50.80;29.40
38265;DHT22;24062;47.480;8.768;2022-07-06T14:02:54;51.90;27.90
38265;DHT22;24062;47.480;8.768;2022-07-06T14:05:20;52.70;28.00
38265;DHT22;24062;47.480;8.768;2022-07-06T14:07:47;54.30;28.30
38265;DHT22;24062;47.480;8.768;2022-07-06T14:10:15;53.90;27.10
38265;DHT22;24062;47.480;8.768;2022-07-06T14:12:41;51.40;26.50
38265;DHT22;24062;47.480;8.768;2022-07-06T14:15:10;52.00;27.30
38265;DHT22;24062;47.480;8.768;2022-07-06T14:17:37;53.30;27.10
38265;DHT22;24062;47.480;8.768;2022-07-06T14:20:04;52.60;25.60
38265;DHT22;24062;47.480;8.768;2022-07-06T14:22:31;47.90;24.40
38265;DHT22;24062;47.480;8.768;2022-07-06T14:24:59;44.00;24.70
38265;DHT22;24062;47.480;8.768;2022-07-06T14:27:26;41.70;25.80
38265;DHT22;24062;47.480;8.768;2022-07-06T14:29:52;45.20;28.40
38265;DHT22;24062;47.480;8.768;2022-07-06T14:32:21;49.30;27.90
38265;DHT22;24062;47.480;8.768;2022-07-06T14:34:47;52.30;27.70
38265;DHT22;24062;47.480;8.768;2022-07-06T14:37:14;54.60;27.10
38265;DHT22;24062;47.480;8.768;2022-07-06T14:39:41;55.00;25.70
38265;DHT22;24062;47.480;8.768;2022-07-06T14:42:10;55.40;26.30
38265;DHT22;24062;47.480;8.768;2022-07-06T14:44:37;56.00;25.90
38265;DHT22;24062;47.480;8.768;2022-07-06T14:47:05;55.90;24.70
38265;DHT22;24062;47.480;8.768;2022-07-06T14:49:33;54.80;24.50
38265;DHT22;24062;47.480;8.768;2022-07-06T14:52:00;55.10;25.10
38265;DHT22;24062;47.480;8.768;2022-07-06T14:54:27;55.50;24.90
38265;DHT22;24062;47.480;8.768;2022-07-06T14:56:54;55.10;24.30
38265;DHT22;24062;47.480;8.768;2022-07-06T14:59:20;55.00;24.10
38265;DHT22;24062;47.480;8.768;2022-07-06T15:01:47;54.70;24.00
38265;DHT22;24062;47.480;8.768;2022-07-06T15:04:14;55.10;24.10
38265;DHT22;24062;47.480;8.768;2022-07-06T15:06:42;54.90;23.70
38265;DHT22;24062;47.480;8.768;2022-07-06T15:09:09;54.10;23.50
38265;DHT22;24062;47.480;8.768;2022-07-06T15:11:36;54.20;24.00
38265;DHT22;24062;47.480;8.768;2022-07-06T15:14:03;54.60;23.90
38265;DHT22;24062;47.480;8.768;2022-07-06T15:16:30;54.90;24.00
38265;DHT22;24062;47.480;8.768;2022-07-06T15:18:57;55.30;24.10
38265;DHT22;24062;47.480;8.768;2022-07-06T15:21:24;56.10;24.40
38265;DHT22;24062;47.480;8.768;2022-07-06T15:23:52;56.30;23.90
38265;DHT22;24062;47.480;8.768;2022-07-06T15:26:19;56.60;24.30
38265;DHT22;24062;47.480;8.768;2022-07-06T15:28:45;56.50;24.00
38265;DHT22;24062;47.480;8.768;2022-07-06T15:31:12;56.90;24.30
38265;DHT22;24062;47.480;8.768;2022-07-06T15:33:39;57.20;24.00
38265;DHT22;24062;47.480;8.768;2022-07-06T15:36:06;56.00;23.40
38265;DHT22;24062;47.480;8.768;2022-07-06T15:38:33;56.00;23.70